sensor_id;sensor_type;location;lat;lon;timestamp;P1;durP1;ratioP1;P2;durP2;ratioP2
21507;SDS011;10915;54.352;9.074;2023-02-28T00:00:26;5.67;;;3.00;;
21507;SDS011;10915;54.352;9.074;2023-02-28T00:02:52;3.90;;;2.70;;
21507;SDS011;10915;54.352;9.074;2023-02-28T00:05:19;4.77;;;2.83;;
21507;SDS011;10915;54.352;9.074;2023-02-28T00:07:46;4.60;;;2.77;;
21507;SDS011;10915;54.352;9.074;2023-02-28T00:10:14;4.07;;;2.70;;
21507;SDS011;10915;54.352;9.074;2023-02-28T00:12:45;5.57;;;3.07;;
21507;SDS011;10915;54.352;9.074;2023-02-28T00:15:18;4.57;;;2.80;;
21507;SDS011;10915;54.352;9.074;2023-02-28T00:17:44;3.10;;;2.30;;
21507;SDS011;10915;54.352;9.074;2023-02-28T00:20:11;4.23;;;2.80;;
21507;SDS011;10915;54.352;9.074;2023-02-28T00:22:38;3.83;;;2.90;;
21507;SDS011;10915;54.352;9.074;2023-02-28T00:25:05;4.87;;;2.73;;
21507;SDS011;10915;54.352;9.074;2023-02-28T00:27:35;4.60;;;2.83;;
21507;SDS011;10915;54.352;9.074;2023-02-28T00:30:02;3.90;;;2.50;;
21507;SDS011;10915;54.352;9.074;2023-02-28T00:32:28;4.80;;;2.80;;
21507;SDS011;10915;54.352;9.074;2023-02-28T00:34:54;4.57;;;3.00;;
21507;SDS011;10915;54.352;9.074;2023-02-28T00:37:20;5.90;;;3.20;;
21507;SDS011;10915;54.352;9.074;2023-02-28T00:39:47;5.83;;;3.10;;
21507;SDS011;10915;54.352;9.074;2023-02-28T00:42:12;5.50;;;3.23;;
21507;SDS011;10915;54.352;9.074;2023-02-28T00:44:38;4.73;;;3.10;;
21507;SDS011;10915;54.352;9.074;2023-02-28T00:47:04;5.53;;;3.20;;
21507;SDS011;10915;54.352;9.074;2023-02-28T00:49:30;7.03;;;4.30;;
21507;SDS011;10915;54.352;9.074;2023-02-28T00:51:56;8.50;;;4.77;;
21507;SDS011;10915;54.352;9.074;2023-02-28T00:54:22;6.27;;;4.30;;
21507;SDS011;10915;54.352;9.074;2023-02-28T00:56:49;6.63;;;4.73;;
21507;SDS011;10915;54.352;9.074;2023-02-28T00:59:16;7.73;;;5.00;;
21507;SDS011;10915;54.352;9.074;2023-02-28T01:01:43;7.13;;;5.03;;
21507;SDS011;10915;54.352;9.074;2023-02-28T01:04:10;9.27;;;5.00;;
21507;SDS011;10915;54.352;9.074;2023-02-28T01:06:36;5.17;;;3.90;;
21507;SDS011;10915;54.352;9.074;2023-02-28T01:09:03;7.17;;;4.20;;
21507;SDS011;10915;54.352;9.074;2023-02-28T01:11:30;8.20;;;5.03;;
21507;SDS011;10915;54.352;9.074;2023-02-28T01:14:01;9.87;;;5.60;;
21507;SDS011;10915;54.352;9.074;2023-02-28T01:16:28;8.17;;;5.90;;
21507;SDS011;10915;54.352;9.074;2023-02-28T01:18:55;10.47;;;5.90;;
21507;SDS011;10915;54.352;9.074;2023-02-28T01:21:21;9.07;;;6.33;;
21507;SDS011;10915;54.352;9.074;2023-02-28T01:23:48;9.00;;;6.43;;
21507;SDS011;10915;54.352;9.074;2023-02-28T01:26:15;7.37;;;5.33;;
21507;SDS011;10915;54.352;9.074;2023-02-28T01:28:46;8.37;;;5.30;;
21507;SDS011;10915;54.352;9.074;2023-02-28T01:31:13;9.00;;;5.47;;
21507;SDS011;10915;54.352;9.074;2023-02-28T01:33:39;9.10;;;6.60;;
21507;SDS011;10915;54.352;9.074;2023-02-28T01:36:10;9.23;;;7.00;;
21507;SDS011;10915;54.352;9.074;2023-02-28T01:38:38;9.17;;;7.53;;
21507;SDS011;10915;54.352;9.074;2023-02-28T01:41:05;13.03;;;9.97;;
21507;SDS011;10915;54.352;9.074;2023-02-28T01:43:39;12.20;;;9.77;;
21507;SDS011;10915;54.352;9.074;2023-02-28T01:46:21;14.57;;;9.43;;
21507;SDS011;10915;54.352;9.074;2023-02-28T01:48:48;10.57;;;9.17;;
21507;SDS011;10915;54.352;9.074;2023-02-28T01:51:33;14.97;;;9.77;;
21507;SDS011;10915;54.352;9.074;2023-02-28T01:54:04;12.90;;;8.97;;
21507;SDS011;10915;54.352;9.074;2023-02-28T01:56:38;10.00;;;8.00;;
21507;SDS011;10915;54.352;9.074;2023-02-28T01:59:10;10.20;;;7.77;;
21507;SDS011;10915;54.352;9.074;2023-02-28T02:01:37;11.63;;;8.13;;
21507;SDS011;10915;54.352;9.074;2023-02-28T02:04:03;9.90;;;7.80;;
21507;SDS011;10915;54.352;9.074;2023-02-28T02:06:34;10.97;;;8.23;;
21507;SDS011;10915;54.352;9.074;2023-02-28T02:09:04;9.87;;;7.73;;
21507;SDS011;10915;54.352;9.074;2023-02-28T02:11:31;12.73;;;9.50;;
21507;SDS011;10915;54.352;9.074;2023-02-28T02:41:12;14.83;;;11.47;;
21507;SDS011;10915;54.352;9.074;2023-02-28T02:46:44;15.90;;;11.73;;
21507;SDS011;10915;54.352;9.074;2023-02-28T02:49:15;14.30;;;11.33;;
21507;SDS011;10915;54.352;9.074;2023-02-28T02:51:51;16.33;;;11.87;;
21507;SDS011;10915;54.352;9.074;2023-02-28T02:54:26;16.47;;;12.23;;
21507;SDS011;10915;54.352;9.074;2023-02-28T02:56:54;16.27;;;11.93;;
21507;SDS011;10915;54.352;9.074;2023-02-28T02:59:25;13.93;;;11.50;;
21507;SDS011;10915;54.352;9.074;2023-02-28T03:01:55;14.77;;;10.27;;
21507;SDS011;10915;54.352;9.074;2023-02-28T03:04:27;13.97;;;10.00;;
21507;SDS011;10915;54.352;9.074;2023-02-28T03:06:58;10.83;;;9.30;;
21507;SDS011;10915;54.352;9.074;2023-02-28T03:09:24;13.80;;;9.67;;
21507;SDS011;10915;54.352;9.074;2023-02-28T03:11:51;13.57;;;9.53;;
21507;SDS011;10915;54.352;9.074;2023-02-28T03:25:37;12.67;;;9.87;;
21507;SDS011;10915;54.352;9.074;2023-02-28T03:31:20;13.40;;;9.97;;
21507;SDS011;10915;54.352;9.074;2023-02-28T03:34:08;12.40;;;9.77;;
21507;SDS011;10915;54.352;9.074;2023-02-28T03:36:38;13.30;;;10.00;;
21507;SDS011;10915;54.352;9.074;2023-02-28T03:39:11;13.33;;;9.80;;
21507;SDS011;10915;54.352;9.074;2023-02-28T03:41:57;13.37;;;10.40;;
21507;SDS011;10915;54.352;9.074;2023-02-28T03:47:00;14.97;;;9.80;;
21507;SDS011;10915;54.352;9.074;2023-02-28T03:49:40;13.00;;;9.37;;
21507;SDS011;10915;54.352;9.074;2023-02-28T03:52:21;12.20;;;9.23;;
21507;SDS011;10915;54.352;9.074;2023-02-28T03:54:52;13.57;;;9.43;;
21507;SDS011;10915;54.352;9.074;2023-02-28T04:00:14;13.47;;;9.10;;
21507;SDS011;10915;54.352;9.074;2023-02-28T04:02:45;10.57;;;8.40;;
21507;SDS011;10915;54.352;9.074;2023-02-28T04:05:10;12.20;;;8.87;;
21507;SDS011;10915;54.352;9.074;2023-02-28T04:07:36;12.27;;;8.23;;
21507;SDS011;10915;54.352;9.074;2023-02-28T04:10:03;10.10;;;8.27;;
21507;SDS011;10915;54.352;9.074;2023-02-28T04:12:29;13.43;;;8.47;;
21507;SDS011;10915;54.352;9.074;2023-02-28T04:14:55;12.07;;;8.57;;
21507;SDS011;10915;54.352;9.074;2023-02-28T04:17:21;12.53;;;8.53;;
21507;SDS011;10915;54.352;9.074;2023-02-28T04:19:46;12.17;;;8.73;;
21507;SDS011;10915;54.352;9.074;2023-02-28T04:22:12;14.23;;;8.70;;
21507;SDS011;10915;54.352;9.074;2023-02-28T04:24:38;11.83;;;8.50;;
21507;SDS011;10915;54.352;9.074;2023-02-28T04:27:06;11.80;;;8.40;;
21507;SDS011;10915;54.352;9.074;2023-02-28T04:29:33;12.17;;;8.70;;
21507;SDS011;10915;54.352;9.074;2023-02-28T04:31:59;10.57;;;8.37;;
21507;SDS011;10915;54.352;9.074;2023-02-28T04:34:27;12.00;;;8.90;;
21507;SDS011;10915;54.352;9.074;2023-02-28T04:36:54;12.70;;;9.37;;
21507;SDS011;10915;54.352;9.074;2023-02-28T04:39:21;15.17;;;10.67;;
21507;SDS011;10915;54.352;9.074;2023-02-28T04:41:48;12.30;;;9.23;;
21507;SDS011;10915;54.352;9.074;2023-02-28T04:44:14;13.30;;;9.57;;
21507;SDS011;10915;54.352;9.074;2023-02-28T04:46:40;11.23;;;8.67;;
21507;SDS011;10915;54.352;9.074;2023-02-28T04:49:06;11.30;;;9.17;;
21507;SDS011;10915;54.352;9.074;2023-02-28T04:51:33;13.93;;;10.97;;
21507;SDS011;10915;54.352;9.074;2023-02-28T04:53:58;14.80;;;11.00;;
21507;SDS011;10915;54.352;9.074;2023-02-28T04:56:24;14.73;;;11.73;;
21507;SDS011;10915;54.352;9.074;2023-02-28T04:58:50;16.17;;;10.37;;
21507;SDS011;10915;54.352;9.074;2023-02-28T05:01:33;15.70;;;11.80;;
21507;SDS011;10915;54.352;9.074;2023-02-28T05:04:02;13.87;;;11.60;;
21507;SDS011;10915;54.352;9.074;2023-02-28T05:06:29;18.70;;;11.90;;
21507;SDS011;10915;54.352;9.074;2023-02-28T05:08:56;18.07;;;12.13;;
21507;SDS011;10915;54.352;9.074;2023-02-28T05:11:24;14.53;;;11.50;;
21507;SDS011;10915;54.352;9.074;2023-02-28T05:13:52;19.47;;;14.00;;
21507;SDS011;10915;54.352;9.074;2023-02-28T05:16:19;18.00;;;11.57;;
21507;SDS011;10915;54.352;9.074;2023-02-28T05:18:45;14.43;;;9.87;;
21507;SDS011;10915;54.352;9.074;2023-02-28T05:21:27;13.87;;;10.20;;
21507;SDS011;10915;54.352;9.074;2023-02-28T05:23:55;12.23;;;10.30;;
21507;SDS011;10915;54.352;9.074;2023-02-28T05:26:23;13.17;;;10.27;;
21507;SDS011;10915;54.352;9.074;2023-02-28T05:28:49;14.77;;;10.53;;
21507;SDS011;10915;54.352;9.074;2023-02-28T05:31:14;15.90;;;11.47;;
21507;SDS011;10915;54.352;9.074;2023-02-28T05:33:40;11.97;;;10.37;;
21507;SDS011;10915;54.352;9.074;2023-02-28T05:36:06;12.93;;;10.43;;
21507;SDS011;10915;54.352;9.074;2023-02-28T05:38:32;12.80;;;9.70;;
21507;SDS011;10915;54.352;9.074;2023-02-28T05:40:58;12.07;;;9.77;;
21507;SDS011;10915;54.352;9.074;2023-02-28T05:43:24;13.57;;;10.07;;
21507;SDS011;10915;54.352;9.074;2023-02-28T05:45:50;14.73;;;10.43;;
21507;SDS011;10915;54.352;9.074;2023-02-28T05:48:15;12.37;;;9.20;;
21507;SDS011;10915;54.352;9.074;2023-02-28T05:50:43;14.67;;;10.10;;
21507;SDS011;10915;54.352;9.074;2023-02-28T05:53:11;14.67;;;10.30;;
21507;SDS011;10915;54.352;9.074;2023-02-28T05:55:36;16.10;;;11.30;;
21507;SDS011;10915;54.352;9.074;2023-02-28T05:58:02;16.43;;;11.17;;
21507;SDS011;10915;54.352;9.074;2023-02-28T06:00:28;15.67;;;10.97;;
21507;SDS011;10915;54.352;9.074;2023-02-28T06:02:54;14.27;;;11.00;;
21507;SDS011;10915;54.352;9.074;2023-02-28T06:05:23;17.40;;;12.03;;
21507;SDS011;10915;54.352;9.074;2023-02-28T06:07:49;17.00;;;13.43;;
21507;SDS011;10915;54.352;9.074;2023-02-28T06:10:15;19.73;;;14.60;;
21507;SDS011;10915;54.352;9.074;2023-02-28T06:12:41;20.80;;;14.70;;
21507;SDS011;10915;54.352;9.074;2023-02-28T06:15:11;19.77;;;15.20;;
21507;SDS011;10915;54.352;9.074;2023-02-28T06:17:38;20.27;;;13.70;;
21507;SDS011;10915;54.352;9.074;2023-02-28T06:20:05;17.80;;;13.63;;
21507;SDS011;10915;54.352;9.074;2023-02-28T06:22:31;19.77;;;14.30;;
21507;SDS011;10915;54.352;9.074;2023-02-28T06:24:57;19.47;;;15.27;;
21507;SDS011;10915;54.352;9.074;2023-02-28T06:27:23;18.80;;;14.30;;
21507;SDS011;10915;54.352;9.074;2023-02-28T06:29:48;16.97;;;13.00;;
21507;SDS011;10915;54.352;9.074;2023-02-28T06:32:14;19.73;;;14.10;;
21507;SDS011;10915;54.352;9.074;2023-02-28T06:34:39;21.30;;;15.00;;
21507;SDS011;10915;54.352;9.074;2023-02-28T06:37:05;20.83;;;15.17;;
21507;SDS011;10915;54.352;9.074;2023-02-28T06:39:31;22.93;;;17.30;;
21507;SDS011;10915;54.352;9.074;2023-02-28T06:41:56;26.40;;;18.70;;
21507;SDS011;10915;54.352;9.074;2023-02-28T06:44:22;28.43;;;17.87;;
21507;SDS011;10915;54.352;9.074;2023-02-28T06:46:49;25.37;;;17.70;;
21507;SDS011;10915;54.352;9.074;2023-02-28T06:49:15;22.13;;;17.37;;
21507;SDS011;10915;54.352;9.074;2023-02-28T06:51:42;25.17;;;18.23;;
21507;SDS011;10915;54.352;9.074;2023-02-28T06:54:12;25.10;;;17.90;;
21507;SDS011;10915;54.352;9.074;2023-02-28T06:56:38;21.47;;;17.00;;
21507;SDS011;10915;54.352;9.074;2023-02-28T06:59:04;24.93;;;18.60;;
21507;SDS011;10915;54.352;9.074;2023-02-28T07:01:30;24.30;;;18.67;;
21507;SDS011;10915;54.352;9.074;2023-02-28T07:03:57;22.20;;;16.83;;
21507;SDS011;10915;54.352;9.074;2023-02-28T07:06:25;21.30;;;16.77;;
21507;SDS011;10915;54.352;9.074;2023-02-28T07:08:51;23.27;;;17.53;;
21507;SDS011;10915;54.352;9.074;2023-02-28T07:11:18;17.23;;;12.47;;
21507;SDS011;10915;54.352;9.074;2023-02-28T07:13:46;16.03;;;11.50;;
21507;SDS011;10915;54.352;9.074;2023-02-28T07:16:12;21.07;;;12.10;;
21507;SDS011;10915;54.352;9.074;2023-02-28T07:18:38;18.13;;;10.60;;
21507;SDS011;10915;54.352;9.074;2023-02-28T07:21:05;15.80;;;11.23;;
21507;SDS011;10915;54.352;9.074;2023-02-28T07:23:32;14.63;;;12.33;;
21507;SDS011;10915;54.352;9.074;2023-02-28T07:25:58;18.27;;;14.10;;
21507;SDS011;10915;54.352;9.074;2023-02-28T07:28:24;18.33;;;13.40;;
21507;SDS011;10915;54.352;9.074;2023-02-28T07:30:50;16.60;;;13.57;;
21507;SDS011;10915;54.352;9.074;2023-02-28T07:33:16;17.57;;;14.13;;
21507;SDS011;10915;54.352;9.074;2023-02-28T07:35:42;17.07;;;13.37;;
21507;SDS011;10915;54.352;9.074;2023-02-28T07:38:07;15.80;;;12.30;;
21507;SDS011;10915;54.352;9.074;2023-02-28T07:40:34;15.40;;;11.87;;
21507;SDS011;10915;54.352;9.074;2023-02-28T07:43:00;15.37;;;11.03;;
21507;SDS011;10915;54.352;9.074;2023-02-28T07:45:27;13.87;;;10.80;;
21507;SDS011;10915;54.352;9.074;2023-02-28T07:47:59;14.00;;;11.27;;
21507;SDS011;10915;54.352;9.074;2023-02-28T07:50:25;16.03;;;12.83;;
21507;SDS011;10915;54.352;9.074;2023-02-28T07:52:52;15.63;;;12.70;;
21507;SDS011;10915;54.352;9.074;2023-02-28T07:55:18;17.23;;;13.20;;
21507;SDS011;10915;54.352;9.074;2023-02-28T07:57:43;15.07;;;12.97;;
21507;SDS011;10915;54.352;9.074;2023-02-28T08:00:10;19.87;;;13.87;;
21507;SDS011;10915;54.352;9.074;2023-02-28T08:02:37;13.87;;;11.40;;
21507;SDS011;10915;54.352;9.074;2023-02-28T08:05:04;16.03;;;12.27;;
21507;SDS011;10915;54.352;9.074;2023-02-28T08:07:30;13.13;;;10.23;;
21507;SDS011;10915;54.352;9.074;2023-02-28T08:09:57;12.53;;;9.30;;
21507;SDS011;10915;54.352;9.074;2023-02-28T08:12:22;13.97;;;8.90;;
21507;SDS011;10915;54.352;9.074;2023-02-28T08:14:48;13.33;;;10.07;;
21507;SDS011;10915;54.352;9.074;2023-02-28T08:17:14;13.13;;;9.23;;
21507;SDS011;10915;54.352;9.074;2023-02-28T08:19:39;13.70;;;10.17;;
21507;SDS011;10915;54.352;9.074;2023-02-28T08:22:05;15.67;;;10.23;;
21507;SDS011;10915;54.352;9.074;2023-02-28T08:24:31;13.00;;;9.90;;
21507;SDS011;10915;54.352;9.074;2023-02-28T08:26:56;12.97;;;9.83;;
21507;SDS011;10915;54.352;9.074;2023-02-28T08:29:22;15.97;;;9.90;;
21507;SDS011;10915;54.352;9.074;2023-02-28T08:31:48;16.97;;;10.77;;
21507;SDS011;10915;54.352;9.074;2023-02-28T08:34:15;14.20;;;10.00;;
21507;SDS011;10915;54.352;9.074;2023-02-28T08:36:41;16.73;;;10.63;;
21507;SDS011;10915;54.352;9.074;2023-02-28T08:39:09;15.37;;;10.30;;
21507;SDS011;10915;54.352;9.074;2023-02-28T08:41:35;15.03;;;10.30;;
21507;SDS011;10915;54.352;9.074;2023-02-28T08:44:01;14.43;;;10.17;;
21507;SDS011;10915;54.352;9.074;2023-02-28T08:46:27;15.57;;;10.93;;
21507;SDS011;10915;54.352;9.074;2023-02-28T08:48:53;13.90;;;10.80;;
21507;SDS011;10915;54.352;9.074;2023-02-28T08:51:21;19.30;;;12.73;;
21507;SDS011;10915;54.352;9.074;2023-02-28T08:53:51;17.10;;;13.00;;
21507;SDS011;10915;54.352;9.074;2023-02-28T08:56:18;16.03;;;11.60;;
21507;SDS011;10915;54.352;9.074;2023-02-28T08:58:44;16.10;;;9.60;;
21507;SDS011;10915;54.352;9.074;2023-02-28T09:01:15;15.03;;;10.77;;
21507;SDS011;10915;54.352;9.074;2023-02-28T09:03:42;17.33;;;11.10;;
21507;SDS011;10915;54.352;9.074;2023-02-28T09:06:09;15.20;;;10.73;;
21507;SDS011;10915;54.352;9.074;2023-02-28T09:08:35;14.97;;;10.37;;
21507;SDS011;10915;54.352;9.074;2023-02-28T09:11:01;15.40;;;10.20;;
21507;SDS011;10915;54.352;9.074;2023-02-28T09:13:28;15.57;;;10.70;;
21507;SDS011;10915;54.352;9.074;2023-02-28T09:15:55;11.70;;;8.73;;
21507;SDS011;10915;54.352;9.074;2023-02-28T09:18:23;13.57;;;8.53;;
21507;SDS011;10915;54.352;9.074;2023-02-28T09:20:49;11.90;;;8.20;;
21507;SDS011;10915;54.352;9.074;2023-02-28T09:23:15;13.47;;;7.93;;
21507;SDS011;10915;54.352;9.074;2023-02-28T09:28:17;11.50;;;7.70;;
21507;SDS011;10915;54.352;9.074;2023-02-28T09:30:44;10.93;;;7.33;;
21507;SDS011;10915;54.352;9.074;2023-02-28T09:33:11;10.60;;;6.43;;
21507;SDS011;10915;54.352;9.074;2023-02-28T09:35:38;9.47;;;6.70;;
21507;SDS011;10915;54.352;9.074;2023-02-28T09:38:04;10.10;;;5.73;;
21507;SDS011;10915;54.352;9.074;2023-02-28T09:40:30;9.63;;;6.40;;
21507;SDS011;10915;54.352;9.074;2023-02-28T09:42:56;11.30;;;6.37;;
21507;SDS011;10915;54.352;9.074;2023-02-28T09:45:36;9.47;;;5.60;;
21507;SDS011;10915;54.352;9.074;2023-02-28T09:48:25;9.93;;;5.70;;
21507;SDS011;10915;54.352;9.074;2023-02-28T09:51:04;8.77;;;5.03;;
21507;SDS011;10915;54.352;9.074;2023-02-28T09:53:37;10.27;;;6.17;;
21507;SDS011;10915;54.352;9.074;2023-02-28T09:56:08;9.23;;;5.63;;
21507;SDS011;10915;54.352;9.074;2023-02-28T09:58:42;9.37;;;5.20;;
21507;SDS011;10915;54.352;9.074;2023-02-28T10:01:28;10.90;;;5.77;;
21507;SDS011;10915;54.352;9.074;2023-02-28T10:06:49;10.30;;;6.50;;
21507;SDS011;10915;54.352;9.074;2023-02-28T10:09:20;10.87;;;7.30;;
21507;SDS011;10915;54.352;9.074;2023-02-28T10:11:53;14.97;;;7.27;;
21507;SDS011;10915;54.352;9.074;2023-02-28T10:14:22;10.53;;;6.63;;
21507;SDS011;10915;54.352;9.074;2023-02-28T10:16:50;13.23;;;7.00;;
21507;SDS011;10915;54.352;9.074;2023-02-28T10:22:20;12.63;;;6.57;;
21507;SDS011;10915;54.352;9.074;2023-02-28T10:25:18;11.00;;;6.00;;
21507;SDS011;10915;54.352;9.074;2023-02-28T10:27:45;9.43;;;5.83;;
21507;SDS011;10915;54.352;9.074;2023-02-28T10:30:11;10.60;;;6.03;;
21507;SDS011;10915;54.352;9.074;2023-02-28T10:32:43;12.00;;;6.00;;
21507;SDS011;10915;54.352;9.074;2023-02-28T10:35:18;8.77;;;5.83;;
21507;SDS011;10915;54.352;9.074;2023-02-28T10:37:56;9.87;;;5.70;;
21507;SDS011;10915;54.352;9.074;2023-02-28T10:45:29;9.97;;;6.13;;
21507;SDS011;10915;54.352;9.074;2023-02-28T11:00:56;10.90;;;6.43;;
21507;SDS011;10915;54.352;9.074;2023-02-28T11:03:31;13.43;;;7.57;;
21507;SDS011;10915;54.352;9.074;2023-02-28T11:06:03;9.40;;;6.40;;
21507;SDS011;10915;54.352;9.074;2023-02-28T11:08:31;11.93;;;8.03;;
21507;SDS011;10915;54.352;9.074;2023-02-28T11:11:01;10.60;;;5.60;;
21507;SDS011;10915;54.352;9.074;2023-02-28T11:13:33;11.43;;;5.50;;
21507;SDS011;10915;54.352;9.074;2023-02-28T11:16:00;9.40;;;5.53;;
21507;SDS011;10915;54.352;9.074;2023-02-28T11:21:15;11.47;;;7.50;;
21507;SDS011;10915;54.352;9.074;2023-02-28T11:23:49;11.67;;;8.80;;
21507;SDS011;10915;54.352;9.074;2023-02-28T11:26:34;10.17;;;7.60;;
21507;SDS011;10915;54.352;9.074;2023-02-28T11:29:10;11.87;;;7.10;;
21507;SDS011;10915;54.352;9.074;2023-02-28T11:34:44;10.87;;;6.90;;
21507;SDS011;10915;54.352;9.074;2023-02-28T11:37:13;9.63;;;6.33;;
21507;SDS011;10915;54.352;9.074;2023-02-28T11:39:44;9.33;;;6.40;;
21507;SDS011;10915;54.352;9.074;2023-02-28T11:47:33;9.60;;;5.87;;
21507;SDS011;10915;54.352;9.074;2023-02-28T11:55:59;8.13;;;5.47;;
21507;SDS011;10915;54.352;9.074;2023-02-28T12:06:25;9.37;;;5.60;;
21507;SDS011;10915;54.352;9.074;2023-02-28T12:25:50;11.57;;;5.33;;
21507;SDS011;10915;54.352;9.074;2023-02-28T12:28:27;11.07;;;5.30;;
21507;SDS011;10915;54.352;9.074;2023-02-28T12:30:58;8.47;;;5.30;;
21507;SDS011;10915;54.352;9.074;2023-02-28T12:33:31;6.70;;;4.50;;
21507;SDS011;10915;54.352;9.074;2023-02-28T12:36:00;12.03;;;5.30;;
21507;SDS011;10915;54.352;9.074;2023-02-28T12:38:36;11.37;;;5.20;;
21507;SDS011;10915;54.352;9.074;2023-02-28T12:43:40;10.10;;;5.80;;
21507;SDS011;10915;54.352;9.074;2023-02-28T12:46:11;9.10;;;5.70;;
21507;SDS011;10915;54.352;9.074;2023-02-28T12:49:05;9.93;;;5.13;;
21507;SDS011;10915;54.352;9.074;2023-02-28T12:51:59;7.50;;;4.00;;
21507;SDS011;10915;54.352;9.074;2023-02-28T13:05:29;6.47;;;3.50;;
21507;SDS011;10915;54.352;9.074;2023-02-28T13:08:15;6.53;;;4.07;;
21507;SDS011;10915;54.352;9.074;2023-02-28T13:11:07;6.67;;;3.90;;
21507;SDS011;10915;54.352;9.074;2023-02-28T13:14:02;6.63;;;4.37;;
21507;SDS011;10915;54.352;9.074;2023-02-28T13:16:53;7.27;;;4.23;;
21507;SDS011;10915;54.352;9.074;2023-02-28T13:19:22;6.63;;;3.60;;
21507;SDS011;10915;54.352;9.074;2023-02-28T13:21:51;5.97;;;3.80;;
21507;SDS011;10915;54.352;9.074;2023-02-28T13:27:11;7.90;;;3.40;;
21507;SDS011;10915;54.352;9.074;2023-02-28T13:29:40;6.90;;;3.40;;
21507;SDS011;10915;54.352;9.074;2023-02-28T13:47:29;6.07;;;3.07;;
21507;SDS011;10915;54.352;9.074;2023-02-28T13:56:39;21.37;;;14.00;;
21507;SDS011;10915;54.352;9.074;2023-02-28T14:06:37;7.07;;;3.60;;
21507;SDS011;10915;54.352;9.074;2023-02-28T14:11:38;4.80;;;3.10;;
21507;SDS011;10915;54.352;9.074;2023-02-28T14:14:06;6.83;;;3.27;;
21507;SDS011;10915;54.352;9.074;2023-02-28T14:16:39;7.60;;;3.60;;
21507;SDS011;10915;54.352;9.074;2023-02-28T14:19:11;6.43;;;3.70;;
21507;SDS011;10915;54.352;9.074;2023-02-28T14:28:40;8.00;;;4.00;;
21507;SDS011;10915;54.352;9.074;2023-02-28T14:33:46;9.80;;;6.97;;
21507;SDS011;10915;54.352;9.074;2023-02-28T14:39:05;11.33;;;7.77;;
21507;SDS011;10915;54.352;9.074;2023-02-28T14:44:13;16.03;;;8.57;;
21507;SDS011;10915;54.352;9.074;2023-02-28T14:46:44;11.97;;;8.33;;
21507;SDS011;10915;54.352;9.074;2023-02-28T14:49:27;15.53;;;9.40;;
21507;SDS011;10915;54.352;9.074;2023-02-28T14:54:37;16.07;;;9.60;;
21507;SDS011;10915;54.352;9.074;2023-02-28T14:57:04;13.40;;;9.40;;
21507;SDS011;10915;54.352;9.074;2023-02-28T14:59:31;14.60;;;8.60;;
21507;SDS011;10915;54.352;9.074;2023-02-28T15:02:19;16.33;;;9.70;;
21507;SDS011;10915;54.352;9.074;2023-02-28T15:05:10;14.47;;;9.70;;
21507;SDS011;10915;54.352;9.074;2023-02-28T15:07:39;15.70;;;10.13;;
21507;SDS011;10915;54.352;9.074;2023-02-28T15:15:21;15.17;;;10.50;;
21507;SDS011;10915;54.352;9.074;2023-02-28T15:17:50;13.20;;;9.20;;
21507;SDS011;10915;54.352;9.074;2023-02-28T15:20:19;14.87;;;9.87;;
21507;SDS011;10915;54.352;9.074;2023-02-28T15:22:45;14.77;;;9.83;;
21507;SDS011;10915;54.352;9.074;2023-02-28T15:25:15;14.03;;;10.50;;
21507;SDS011;10915;54.352;9.074;2023-02-28T15:27:54;17.27;;;11.70;;
21507;SDS011;10915;54.352;9.074;2023-02-28T15:30:26;17.83;;;11.23;;
21507;SDS011;10915;54.352;9.074;2023-02-28T15:35:44;15.63;;;10.13;;
21507;SDS011;10915;54.352;9.074;2023-02-28T15:38:18;19.83;;;13.17;;
21507;SDS011;10915;54.352;9.074;2023-02-28T15:46:24;14.60;;;10.07;;
21507;SDS011;10915;54.352;9.074;2023-02-28T15:48:47;14.73;;;8.97;;
21507;SDS011;10915;54.352;9.074;2023-02-28T15:51:22;13.60;;;8.23;;
21507;SDS011;10915;54.352;9.074;2023-02-28T15:53:55;14.53;;;9.27;;
21507;SDS011;10915;54.352;9.074;2023-02-28T15:56:33;13.60;;;8.50;;
21507;SDS011;10915;54.352;9.074;2023-02-28T15:59:16;15.77;;;8.37;;
21507;SDS011;10915;54.352;9.074;2023-02-28T16:01:44;17.73;;;8.87;;
21507;SDS011;10915;54.352;9.074;2023-02-28T16:04:19;11.30;;;8.63;;
21507;SDS011;10915;54.352;9.074;2023-02-28T16:06:46;14.03;;;8.50;;
21507;SDS011;10915;54.352;9.074;2023-02-28T16:09:17;14.10;;;8.60;;
21507;SDS011;10915;54.352;9.074;2023-02-28T16:11:45;13.87;;;8.80;;
21507;SDS011;10915;54.352;9.074;2023-02-28T16:14:14;14.37;;;9.33;;
21507;SDS011;10915;54.352;9.074;2023-02-28T16:16:43;13.00;;;8.57;;
21507;SDS011;10915;54.352;9.074;2023-02-28T16:19:10;13.60;;;8.60;;
21507;SDS011;10915;54.352;9.074;2023-02-28T16:21:36;15.10;;;8.53;;
21507;SDS011;10915;54.352;9.074;2023-02-28T16:24:02;10.90;;;8.57;;
21507;SDS011;10915;54.352;9.074;2023-02-28T16:26:28;13.47;;;9.13;;
21507;SDS011;10915;54.352;9.074;2023-02-28T16:28:54;13.70;;;8.73;;
21507;SDS011;10915;54.352;9.074;2023-02-28T16:31:20;14.37;;;8.13;;
21507;SDS011;10915;54.352;9.074;2023-02-28T16:33:46;12.87;;;9.00;;
21507;SDS011;10915;54.352;9.074;2023-02-28T16:36:19;13.27;;;9.20;;
21507;SDS011;10915;54.352;9.074;2023-02-28T16:38:47;13.70;;;9.50;;
21507;SDS011;10915;54.352;9.074;2023-02-28T16:41:14;13.10;;;9.40;;
21507;SDS011;10915;54.352;9.074;2023-02-28T16:43:45;13.27;;;9.57;;
21507;SDS011;10915;54.352;9.074;2023-02-28T16:46:12;16.27;;;8.93;;
21507;SDS011;10915;54.352;9.074;2023-02-28T16:48:41;16.37;;;9.80;;
21507;SDS011;10915;54.352;9.074;2023-02-28T16:51:13;16.00;;;9.97;;
21507;SDS011;10915;54.352;9.074;2023-02-28T16:53:41;16.90;;;10.30;;
21507;SDS011;10915;54.352;9.074;2023-02-28T16:56:18;18.27;;;10.63;;
21507;SDS011;10915;54.352;9.074;2023-02-28T16:58:47;14.67;;;10.83;;
21507;SDS011;10915;54.352;9.074;2023-02-28T17:01:14;17.30;;;11.57;;
21507;SDS011;10915;54.352;9.074;2023-02-28T17:03:40;20.00;;;11.80;;
21507;SDS011;10915;54.352;9.074;2023-02-28T17:06:17;17.10;;;11.70;;
21507;SDS011;10915;54.352;9.074;2023-02-28T17:08:46;17.63;;;11.60;;
21507;SDS011;10915;54.352;9.074;2023-02-28T17:11:12;20.53;;;11.97;;
21507;SDS011;10915;54.352;9.074;2023-02-28T17:13:37;15.63;;;11.60;;
21507;SDS011;10915;54.352;9.074;2023-02-28T17:16:03;17.97;;;12.03;;
21507;SDS011;10915;54.352;9.074;2023-02-28T17:18:29;14.67;;;11.47;;
21507;SDS011;10915;54.352;9.074;2023-02-28T17:20:59;15.83;;;11.87;;
21507;SDS011;10915;54.352;9.074;2023-02-28T17:23:25;15.47;;;11.03;;
21507;SDS011;10915;54.352;9.074;2023-02-28T17:25:51;17.00;;;12.20;;
21507;SDS011;10915;54.352;9.074;2023-02-28T17:28:20;16.73;;;12.77;;
21507;SDS011;10915;54.352;9.074;2023-02-28T17:30:47;18.43;;;12.47;;
21507;SDS011;10915;54.352;9.074;2023-02-28T17:33:13;19.10;;;11.63;;
21507;SDS011;10915;54.352;9.074;2023-02-28T17:35:39;15.93;;;11.87;;
21507;SDS011;10915;54.352;9.074;2023-02-28T17:38:08;17.03;;;13.20;;
21507;SDS011;10915;54.352;9.074;2023-02-28T17:40:43;16.40;;;12.20;;
21507;SDS011;10915;54.352;9.074;2023-02-28T17:43:09;20.57;;;13.37;;
21507;SDS011;10915;54.352;9.074;2023-02-28T17:45:35;20.20;;;13.30;;
21507;SDS011;10915;54.352;9.074;2023-02-28T17:48:01;18.60;;;13.03;;
21507;SDS011;10915;54.352;9.074;2023-02-28T17:50:28;18.97;;;12.83;;
21507;SDS011;10915;54.352;9.074;2023-02-28T17:52:54;17.57;;;13.60;;
21507;SDS011;10915;54.352;9.074;2023-02-28T17:55:21;19.00;;;12.87;;
21507;SDS011;10915;54.352;9.074;2023-02-28T17:57:47;14.70;;;12.03;;
21507;SDS011;10915;54.352;9.074;2023-02-28T18:00:13;16.60;;;12.23;;
21507;SDS011;10915;54.352;9.074;2023-02-28T18:02:42;18.37;;;12.97;;